sensor_id;sensor_type;location;lat;lon;timestamp;temperature;humidity
41318;DHT22;27067;51.554;7.026;2023-03-01T00:01:13;14.00;74.10
41318;DHT22;27067;51.554;7.026;2023-03-01T00:03:39;14.00;74.20
41318;DHT22;27067;51.554;7.026;2023-03-01T00:06:05;14.00;74.20
41318;DHT22;27067;51.554;7.026;2023-03-01T00:08:31;14.00;74.20
41318;DHT22;27067;51.554;7.026;2023-03-01T00:11:03;14.00;74.20
41318;DHT22;27067;51.554;7.026;2023-03-01T00:13:29;14.00;74.20
41318;DHT22;27067;51.554;7.026;2023-03-01T00:15:55;13.90;74.20
41318;DHT22;27067;51.554;7.026;2023-03-01T00:18:20;14.00;74.30
41318;DHT22;27067;51.554;7.026;2023-03-01T00:20:54;13.90;74.30
41318;DHT22;27067;51.554;7.026;2023-03-01T00:23:21;13.90;74.30
41318;DHT22;27067;51.554;7.026;2023-03-01T00:25:46;13.90;74.30
41318;DHT22;27067;51.554;7.026;2023-03-01T00:28:12;13.90;74.40
41318;DHT22;27067;51.554;7.026;2023-03-01T00:30:38;13.90;74.40
41318;DHT22;27067;51.554;7.026;2023-03-01T00:33:03;13.90;74.40
41318;DHT22;27067;51.554;7.026;2023-03-01T00:35:29;13.90;74.50
41318;DHT22;27067;51.554;7.026;2023-03-01T00:37:56;13.80;74.40
41318;DHT22;27067;51.554;7.026;2023-03-01T00:40:34;13.80;74.40
41318;DHT22;27067;51.554;7.026;2023-03-01T00:43:00;13.80;74.60
41318;DHT22;27067;51.554;7.026;2023-03-01T00:45:26;13.80;74.60
41318;DHT22;27067;51.554;7.026;2023-03-01T00:47:52;13.80;74.60
41318;DHT22;27067;51.554;7.026;2023-03-01T00:50:18;13.80;74.60
41318;DHT22;27067;51.554;7.026;2023-03-01T00:52:44;13.80;74.60
41318;DHT22;27067;51.554;7.026;2023-03-01T00:55:10;13.80;74.60
41318;DHT22;27067;51.554;7.026;2023-03-01T00:57:37;13.80;74.70
41318;DHT22;27067;51.554;7.026;2023-03-01T01:00:04;13.80;74.70
41318;DHT22;27067;51.554;7.026;2023-03-01T01:02:32;13.80;74.70
41318;DHT22;27067;51.554;7.026;2023-03-01T01:04:58;13.80;74.70
41318;DHT22;27067;51.554;7.026;2023-03-01T01:07:24;13.80;74.70
41318;DHT22;27067;51.554;7.026;2023-03-01T01:09:49;13.70;74.70
41318;DHT22;27067;51.554;7.026;2023-03-01T01:12:15;13.70;74.70
41318;DHT22;27067;51.554;7.026;2023-03-01T01:14:40;13.70;74.80
41318;DHT22;27067;51.554;7.026;2023-03-01T01:17:06;13.70;74.80
41318;DHT22;27067;51.554;7.026;2023-03-01T01:19:32;13.70;74.90
41318;DHT22;27067;51.554;7.026;2023-03-01T01:21:57;13.70;74.90
41318;DHT22;27067;51.554;7.026;2023-03-01T01:24:23;13.70;75.10
41318;DHT22;27067;51.554;7.026;2023-03-01T01:26:49;13.70;75.10
41318;DHT22;27067;51.554;7.026;2023-03-01T01:29:14;13.60;75.00
41318;DHT22;27067;51.554;7.026;2023-03-01T01:31:42;13.70;75.10
41318;DHT22;27067;51.554;7.026;2023-03-01T01:34:13;13.70;75.10
41318;DHT22;27067;51.554;7.026;2023-03-01T01:36:39;13.70;75.10
41318;DHT22;27067;51.554;7.026;2023-03-01T01:39:05;13.70;75.10
41318;DHT22;27067;51.554;7.026;2023-03-01T01:41:31;13.70;75.10
41318;DHT22;27067;51.554;7.026;2023-03-01T01:46:52;13.70;75.00
41318;DHT22;27067;51.554;7.026;2023-03-01T01:49:37;13.70;74.90
41318;DHT22;27067;51.554;7.026;2023-03-01T01:57:35;13.70;74.90
41318;DHT22;27067;51.554;7.026;2023-03-01T02:00:06;13.60;74.80
41318;DHT22;27067;51.554;7.026;2023-03-01T02:02:32;13.70;74.90
41318;DHT22;27067;51.554;7.026;2023-03-01T02:05:19;13.70;74.90
41318;DHT22;27067;51.554;7.026;2023-03-01T02:07:46;13.70;75.00
41318;DHT22;27067;51.554;7.026;2023-03-01T02:10:13;13.60;75.00
41318;DHT22;27067;51.554;7.026;2023-03-01T02:12:39;13.60;75.00
41318;DHT22;27067;51.554;7.026;2023-03-01T02:15:05;13.60;75.00
41318;DHT22;27067;51.554;7.026;2023-03-01T02:17:31;13.60;75.00
41318;DHT22;27067;51.554;7.026;2023-03-01T02:22:38;13.60;75.00
41318;DHT22;27067;51.554;7.026;2023-03-01T02:30:42;13.60;75.00
41318;DHT22;27067;51.554;7.026;2023-03-01T02:33:29;13.60;75.00
41318;DHT22;27067;51.554;7.026;2023-03-01T02:35:59;13.60;75.00
41318;DHT22;27067;51.554;7.026;2023-03-01T02:38:25;13.60;75.00
41318;DHT22;27067;51.554;7.026;2023-03-01T02:40:52;13.60;75.00
41318;DHT22;27067;51.554;7.026;2023-03-01T02:43:19;13.50;75.00
41318;DHT22;27067;51.554;7.026;2023-03-01T02:45:52;13.60;75.00
41318;DHT22;27067;51.554;7.026;2023-03-01T02:48:19;13.50;75.00
41318;DHT22;27067;51.554;7.026;2023-03-01T02:53:35;13.50;75.10
41318;DHT22;27067;51.554;7.026;2023-03-01T02:56:03;13.50;75.10
41318;DHT22;27067;51.554;7.026;2023-03-01T02:58:29;13.50;75.20
41318;DHT22;27067;51.554;7.026;2023-03-01T03:00:55;13.50;75.10
41318;DHT22;27067;51.554;7.026;2023-03-01T03:03:22;13.50;75.10
41318;DHT22;27067;51.554;7.026;2023-03-01T03:05:48;13.50;75.20
41318;DHT22;27067;51.554;7.026;2023-03-01T03:08:14;13.50;75.20
41318;DHT22;27067;51.554;7.026;2023-03-01T03:10:42;13.50;75.20
41318;DHT22;27067;51.554;7.026;2023-03-01T03:13:13;13.50;75.20
41318;DHT22;27067;51.554;7.026;2023-03-01T03:15:40;13.50;75.20
41318;DHT22;27067;51.554;7.026;2023-03-01T03:18:09;13.40;75.20
41318;DHT22;27067;51.554;7.026;2023-03-01T03:20:35;13.40;75.20
41318;DHT22;27067;51.554;7.026;2023-03-01T03:23:01;13.40;75.20
41318;DHT22;27067;51.554;7.026;2023-03-01T03:25:28;13.40;75.20
41318;DHT22;27067;51.554;7.026;2023-03-01T03:27:55;13.40;75.30
41318;DHT22;27067;51.554;7.026;2023-03-01T03:30:27;13.40;75.30
41318;DHT22;27067;51.554;7.026;2023-03-01T03:32:52;13.40;75.40
41318;DHT22;27067;51.554;7.026;2023-03-01T03:35:23;13.40;75.40
41318;DHT22;27067;51.554;7.026;2023-03-01T03:37:50;13.40;75.30
41318;DHT22;27067;51.554;7.026;2023-03-01T03:40:39;13.40;75.40
41318;DHT22;27067;51.554;7.026;2023-03-01T03:43:07;13.40;75.40
41318;DHT22;27067;51.554;7.026;2023-03-01T03:45:34;13.40;75.40
41318;DHT22;27067;51.554;7.026;2023-03-01T03:48:01;13.30;75.30
41318;DHT22;27067;51.554;7.026;2023-03-01T03:50:27;13.30;75.30
41318;DHT22;27067;51.554;7.026;2023-03-01T03:52:53;13.40;75.40
41318;DHT22;27067;51.554;7.026;2023-03-01T03:55:19;13.30;75.30
41318;DHT22;27067;51.554;7.026;2023-03-01T03:57:47;13.30;75.40
41318;DHT22;27067;51.554;7.026;2023-03-01T04:00:18;13.30;75.30
41318;DHT22;27067;51.554;7.026;2023-03-01T04:02:45;13.30;75.40
41318;DHT22;27067;51.554;7.026;2023-03-01T04:05:13;13.30;75.40
41318;DHT22;27067;51.554;7.026;2023-03-01T04:07:40;13.30;75.40
41318;DHT22;27067;51.554;7.026;2023-03-01T04:10:09;13.30;75.40
41318;DHT22;27067;51.554;7.026;2023-03-01T04:12:35;13.30;75.50
41318;DHT22;27067;51.554;7.026;2023-03-01T04:15:05;13.30;75.50
41318;DHT22;27067;51.554;7.026;2023-03-01T04:17:41;13.30;75.50
41318;DHT22;27067;51.554;7.026;2023-03-01T04:20:15;13.30;75.50
41318;DHT22;27067;51.554;7.026;2023-03-01T04:22:51;13.30;75.50
41318;DHT22;27067;51.554;7.026;2023-03-01T04:25:16;13.20;75.40
41318;DHT22;27067;51.554;7.026;2023-03-01T04:27:42;13.30;75.50
41318;DHT22;27067;51.554;7.026;2023-03-01T04:30:08;13.20;75.50
41318;DHT22;27067;51.554;7.026;2023-03-01T04:32:34;13.30;75.90
41318;DHT22;27067;51.554;7.026;2023-03-01T04:35:00;13.20;75.50
41318;DHT22;27067;51.554;7.026;2023-03-01T04:37:26;13.20;75.50
41318;DHT22;27067;51.554;7.026;2023-03-01T04:39:52;13.20;75.60
41318;DHT22;27067;51.554;7.026;2023-03-01T04:42:18;13.20;75.60
41318;DHT22;27067;51.554;7.026;2023-03-01T04:44:44;13.20;75.80
41318;DHT22;27067;51.554;7.026;2023-03-01T04:47:10;13.20;76.10
41318;DHT22;27067;51.554;7.026;2023-03-01T04:49:36;13.20;76.30
41318;DHT22;27067;51.554;7.026;2023-03-01T04:52:02;13.40;76.50
41318;DHT22;27067;51.554;7.026;2023-03-01T04:54:31;13.50;76.60
41318;DHT22;27067;51.554;7.026;2023-03-01T04:56:57;13.60;76.40
41318;DHT22;27067;51.554;7.026;2023-03-01T04:59:24;13.80;76.30
41318;DHT22;27067;51.554;7.026;2023-03-01T05:01:51;13.90;76.10
41318;DHT22;27067;51.554;7.026;2023-03-01T05:04:16;14.00;75.80
41318;DHT22;27067;51.554;7.026;2023-03-01T05:06:42;14.20;75.50
41318;DHT22;27067;51.554;7.026;2023-03-01T05:09:08;14.30;75.20
41318;DHT22;27067;51.554;7.026;2023-03-01T05:11:34;14.30;74.90
41318;DHT22;27067;51.554;7.026;2023-03-01T05:14:08;14.40;74.80
41318;DHT22;27067;51.554;7.026;2023-03-01T05:16:35;14.50;74.80
41318;DHT22;27067;51.554;7.026;2023-03-01T05:19:02;14.50;74.80
41318;DHT22;27067;51.554;7.026;2023-03-01T05:21:37;14.50;74.80
41318;DHT22;27067;51.554;7.026;2023-03-01T05:24:23;14.60;74.80
41318;DHT22;27067;51.554;7.026;2023-03-01T05:26:49;14.70;74.60
41318;DHT22;27067;51.554;7.026;2023-03-01T05:29:18;14.80;74.50
41318;DHT22;27067;51.554;7.026;2023-03-01T05:31:43;14.90;74.40
41318;DHT22;27067;51.554;7.026;2023-03-01T05:34:09;14.90;74.30
41318;DHT22;27067;51.554;7.026;2023-03-01T05:36:36;15.00;74.10
41318;DHT22;27067;51.554;7.026;2023-03-01T05:39:03;15.10;74.00
41318;DHT22;27067;51.554;7.026;2023-03-01T05:41:29;15.20;73.90
41318;DHT22;27067;51.554;7.026;2023-03-01T05:43:55;15.20;73.80
41318;DHT22;27067;51.554;7.026;2023-03-01T05:46:21;15.30;73.80
41318;DHT22;27067;51.554;7.026;2023-03-01T05:48:48;15.40;73.60
41318;DHT22;27067;51.554;7.026;2023-03-01T05:51:14;15.40;73.50
41318;DHT22;27067;51.554;7.026;2023-03-01T05:53:39;15.40;73.40
41318;DHT22;27067;51.554;7.026;2023-03-01T05:56:05;15.50;73.40
41318;DHT22;27067;51.554;7.026;2023-03-01T05:58:31;15.60;73.30
41318;DHT22;27067;51.554;7.026;2023-03-01T06:00:57;15.60;73.20
41318;DHT22;27067;51.554;7.026;2023-03-01T06:03:23;15.60;73.20
41318;DHT22;27067;51.554;7.026;2023-03-01T06:05:48;15.60;73.10
41318;DHT22;27067;51.554;7.026;2023-03-01T06:08:14;15.70;73.10
41318;DHT22;27067;51.554;7.026;2023-03-01T06:10:40;15.70;73.00
41318;DHT22;27067;51.554;7.026;2023-03-01T06:13:06;15.70;72.90
41318;DHT22;27067;51.554;7.026;2023-03-01T06:15:32;15.70;72.90
41318;DHT22;27067;51.554;7.026;2023-03-01T06:17:57;15.70;72.80
41318;DHT22;27067;51.554;7.026;2023-03-01T06:20:25;15.70;72.80
41318;DHT22;27067;51.554;7.026;2023-03-01T06:22:52;15.60;72.80
41318;DHT22;27067;51.554;7.026;2023-03-01T06:25:20;15.60;72.80
41318;DHT22;27067;51.554;7.026;2023-03-01T06:27:46;15.60;72.90
41318;DHT22;27067;51.554;7.026;2023-03-01T06:30:14;15.50;73.00
41318;DHT22;27067;51.554;7.026;2023-03-01T06:32:41;15.50;73.00
41318;DHT22;27067;51.554;7.026;2023-03-01T06:35:10;15.40;73.10
41318;DHT22;27067;51.554;7.026;2023-03-01T06:37:37;15.30;73.30
41318;DHT22;27067;51.554;7.026;2023-03-01T06:40:04;15.40;73.50
41318;DHT22;27067;51.554;7.026;2023-03-01T06:42:34;15.30;73.50
41318;DHT22;27067;51.554;7.026;2023-03-01T06:45:00;15.40;73.60
41318;DHT22;27067;51.554;7.026;2023-03-01T06:47:25;15.50;73.60
41318;DHT22;27067;51.554;7.026;2023-03-01T06:49:51;15.50;73.50
41318;DHT22;27067;51.554;7.026;2023-03-01T06:52:17;15.60;73.50
41318;DHT22;27067;51.554;7.026;2023-03-01T06:54:42;15.60;73.30
41318;DHT22;27067;51.554;7.026;2023-03-01T06:57:08;15.70;73.30
41318;DHT22;27067;51.554;7.026;2023-03-01T06:59:33;15.70;73.20
41318;DHT22;27067;51.554;7.026;2023-03-01T07:01:59;15.70;73.10
41318;DHT22;27067;51.554;7.026;2023-03-01T07:04:24;15.80;73.00
41318;DHT22;27067;51.554;7.026;2023-03-01T07:06:50;15.80;72.90
41318;DHT22;27067;51.554;7.026;2023-03-01T07:09:21;15.90;72.90
41318;DHT22;27067;51.554;7.026;2023-03-01T07:11:47;15.90;72.80
41318;DHT22;27067;51.554;7.026;2023-03-01T07:14:13;15.90;72.70
41318;DHT22;27067;51.554;7.026;2023-03-01T07:16:39;15.90;72.60
41318;DHT22;27067;51.554;7.026;2023-03-01T07:19:04;15.80;72.50
41318;DHT22;27067;51.554;7.026;2023-03-01T07:21:31;15.80;72.60
41318;DHT22;27067;51.554;7.026;2023-03-01T07:23:57;15.80;72.60
41318;DHT22;27067;51.554;7.026;2023-03-01T07:26:22;15.70;72.60
41318;DHT22;27067;51.554;7.026;2023-03-01T07:28:48;15.70;72.60
41318;DHT22;27067;51.554;7.026;2023-03-01T07:31:14;15.60;72.40
41318;DHT22;27067;51.554;7.026;2023-03-01T07:33:40;15.60;72.00
41318;DHT22;27067;51.554;7.026;2023-03-01T07:36:06;15.50;72.30
41318;DHT22;27067;51.554;7.026;2023-03-01T07:38:31;15.50;74.60
41318;DHT22;27067;51.554;7.026;2023-03-01T07:41:02;15.50;76.40
41318;DHT22;27067;51.554;7.026;2023-03-01T07:43:29;15.50;77.30
41318;DHT22;27067;51.554;7.026;2023-03-01T07:45:54;15.40;77.60
41318;DHT22;27067;51.554;7.026;2023-03-01T07:48:22;15.40;77.70
41318;DHT22;27067;51.554;7.026;2023-03-01T07:50:48;15.40;77.60
41318;DHT22;27067;51.554;7.026;2023-03-01T07:53:14;15.40;77.20
41318;DHT22;27067;51.554;7.026;2023-03-01T07:55:39;15.40;76.70
41318;DHT22;27067;51.554;7.026;2023-03-01T07:58:05;15.40;76.30
41318;DHT22;27067;51.554;7.026;2023-03-01T08:00:30;15.30;76.00
41318;DHT22;27067;51.554;7.026;2023-03-01T08:02:59;15.40;75.80
41318;DHT22;27067;51.554;7.026;2023-03-01T08:05:25;15.40;75.50
41318;DHT22;27067;51.554;7.026;2023-03-01T08:07:51;15.50;75.20
41318;DHT22;27067;51.554;7.026;2023-03-01T08:10:17;15.60;74.80
41318;DHT22;27067;51.554;7.026;2023-03-01T08:12:42;15.60;74.30
41318;DHT22;27067;51.554;7.026;2023-03-01T08:15:08;15.70;73.90
41318;DHT22;27067;51.554;7.026;2023-03-01T08:17:34;15.70;73.60
41318;DHT22;27067;51.554;7.026;2023-03-01T08:20:00;15.70;73.30
41318;DHT22;27067;51.554;7.026;2023-03-01T08:22:25;15.60;73.10
41318;DHT22;27067;51.554;7.026;2023-03-01T08:24:51;15.90;73.00
41318;DHT22;27067;51.554;7.026;2023-03-01T08:27:16;15.60;72.70
41318;DHT22;27067;51.554;7.026;2023-03-01T08:29:42;15.60;72.60
41318;DHT22;27067;51.554;7.026;2023-03-01T08:32:08;15.60;72.60
41318;DHT22;27067;51.554;7.026;2023-03-01T08:34:34;15.50;72.50
41318;DHT22;27067;51.554;7.026;2023-03-01T08:37:01;15.50;72.60
41318;DHT22;27067;51.554;7.026;2023-03-01T08:39:27;15.40;73.10
41318;DHT22;27067;51.554;7.026;2023-03-01T08:41:53;15.40;72.40
41318;DHT22;27067;51.554;7.026;2023-03-01T08:44:18;15.40;72.50
41318;DHT22;27067;51.554;7.026;2023-03-01T08:46:46;15.30;72.40
41318;DHT22;27067;51.554;7.026;2023-03-01T08:49:21;15.30;72.50
41318;DHT22;27067;51.554;7.026;2023-03-01T08:51:47;15.30;72.50
41318;DHT22;27067;51.554;7.026;2023-03-01T08:54:15;15.20;72.50
41318;DHT22;27067;51.554;7.026;2023-03-01T08:56:41;15.20;72.60
41318;DHT22;27067;51.554;7.026;2023-03-01T08:59:08;15.20;72.60
41318;DHT22;27067;51.554;7.026;2023-03-01T09:01:34;15.10;72.60
41318;DHT22;27067;51.554;7.026;2023-03-01T09:03:59;15.10;72.60
41318;DHT22;27067;51.554;7.026;2023-03-01T09:06:25;15.10;72.60
41318;DHT22;27067;51.554;7.026;2023-03-01T09:08:51;15.10;72.60
41318;DHT22;27067;51.554;7.026;2023-03-01T09:11:20;15.10;72.70
41318;DHT22;27067;51.554;7.026;2023-03-01T09:13:47;15.00;72.70
41318;DHT22;27067;51.554;7.026;2023-03-01T09:16:15;15.00;72.70
41318;DHT22;27067;51.554;7.026;2023-03-01T09:18:42;15.00;72.70
41318;DHT22;27067;51.554;7.026;2023-03-01T09:23:39;15.00;72.60
41318;DHT22;27067;51.554;7.026;2023-03-01T09:26:07;15.00;72.60
41318;DHT22;27067;51.554;7.026;2023-03-01T09:28:33;14.90;72.50
41318;DHT22;27067;51.554;7.026;2023-03-01T09:31:00;14.90;72.50
41318;DHT22;27067;51.554;7.026;2023-03-01T09:33:26;14.90;72.50
41318;DHT22;27067;51.554;7.026;2023-03-01T09:36:00;14.90;72.40
41318;DHT22;27067;51.554;7.026;2023-03-01T09:38:26;14.90;72.50
41318;DHT22;27067;51.554;7.026;2023-03-01T09:40:52;14.90;72.40
41318;DHT22;27067;51.554;7.026;2023-03-01T09:43:59;14.90;72.50
41318;DHT22;27067;51.554;7.026;2023-03-01T09:46:24;14.90;72.50
41318;DHT22;27067;51.554;7.026;2023-03-01T09:48:56;14.80;72.50
41318;DHT22;27067;51.554;7.026;2023-03-01T09:51:42;14.80;72.80
41318;DHT22;27067;51.554;7.026;2023-03-01T09:54:09;14.80;73.00
41318;DHT22;27067;51.554;7.026;2023-03-01T09:56:40;14.80;73.10
41318;DHT22;27067;51.554;7.026;2023-03-01T09:59:15;14.90;73.20
41318;DHT22;27067;51.554;7.026;2023-03-01T10:04:53;14.90;72.90
41318;DHT22;27067;51.554;7.026;2023-03-01T10:07:43;15.00;72.90
41318;DHT22;27067;51.554;7.026;2023-03-01T10:10:43;15.00;72.80
41318;DHT22;27067;51.554;7.026;2023-03-01T10:13:21;15.00;72.40
41318;DHT22;27067;51.554;7.026;2023-03-01T10:15:59;15.00;72.20
41318;DHT22;27067;51.554;7.026;2023-03-01T10:18:28;15.00;72.10
41318;DHT22;27067;51.554;7.026;2023-03-01T10:21:00;15.00;72.10
41318;DHT22;27067;51.554;7.026;2023-03-01T10:23:29;15.00;72.00
41318;DHT22;27067;51.554;7.026;2023-03-01T10:29:08;15.00;71.60
41318;DHT22;27067;51.554;7.026;2023-03-01T10:34:13;15.00;71.20
41318;DHT22;27067;51.554;7.026;2023-03-01T10:36:40;15.00;71.00
41318;DHT22;27067;51.554;7.026;2023-03-01T10:39:13;15.00;70.90
41318;DHT22;27067;51.554;7.026;2023-03-01T10:44:41;14.90;70.70
41318;DHT22;27067;51.554;7.026;2023-03-01T10:47:22;15.00;70.60
41318;DHT22;27067;51.554;7.026;2023-03-01T10:50:02;15.00;70.60
41318;DHT22;27067;51.554;7.026;2023-03-01T10:52:40;15.00;70.60
41318;DHT22;27067;51.554;7.026;2023-03-01T10:55:33;15.00;70.50
41318;DHT22;27067;51.554;7.026;2023-03-01T10:58:26;15.00;70.40
41318;DHT22;27067;51.554;7.026;2023-03-01T11:00:52;15.00;70.30
41318;DHT22;27067;51.554;7.026;2023-03-01T11:03:23;15.00;70.20
41318;DHT22;27067;51.554;7.026;2023-03-01T11:06:03;15.00;70.10
41318;DHT22;27067;51.554;7.026;2023-03-01T11:11:13;15.00;70.10
41318;DHT22;27067;51.554;7.026;2023-03-01T11:13:53;15.00;70.10
41318;DHT22;27067;51.554;7.026;2023-03-01T11:19:15;15.00;70.20
41318;DHT22;27067;51.554;7.026;2023-03-01T11:21:43;15.00;70.20
41318;DHT22;27067;51.554;7.026;2023-03-01T11:24:11;14.90;70.20
41318;DHT22;27067;51.554;7.026;2023-03-01T11:26:41;15.00;70.50
41318;DHT22;27067;51.554;7.026;2023-03-01T11:29:34;15.00;70.60
41318;DHT22;27067;51.554;7.026;2023-03-01T11:32:05;15.00;70.70
41318;DHT22;27067;51.554;7.026;2023-03-01T11:34:47;15.00;70.70
41318;DHT22;27067;51.554;7.026;2023-03-01T11:37:36;15.10;70.60
41318;DHT22;27067;51.554;7.026;2023-03-01T11:40:28;15.10;70.60
41318;DHT22;27067;51.554;7.026;2023-03-01T11:43:19;15.10;70.40
41318;DHT22;27067;51.554;7.026;2023-03-01T11:48:48;15.20;70.20
41318;DHT22;27067;51.554;7.026;2023-03-01T12:00:06;15.20;70.10
41318;DHT22;27067;51.554;7.026;2023-03-01T12:11:06;15.10;69.90
41318;DHT22;27067;51.554;7.026;2023-03-01T12:16:57;15.10;69.90
41318;DHT22;27067;51.554;7.026;2023-03-01T12:22:31;15.10;69.80
41318;DHT22;27067;51.554;7.026;2023-03-01T12:25:20;15.10;69.70
41318;DHT22;27067;51.554;7.026;2023-03-01T12:44:01;15.00;69.60
41318;DHT22;27067;51.554;7.026;2023-03-01T12:49:23;15.10;69.70
41318;DHT22;27067;51.554;7.026;2023-03-01T12:52:10;15.00;69.60
41318;DHT22;27067;51.554;7.026;2023-03-01T12:54:38;15.00;69.40
41318;DHT22;27067;51.554;7.026;2023-03-01T12:57:31;15.00;69.20
41318;DHT22;27067;51.554;7.026;2023-03-01T13:00:27;15.00;69.00
41318;DHT22;27067;51.554;7.026;2023-03-01T13:03:19;15.00;68.80
41318;DHT22;27067;51.554;7.026;2023-03-01T13:08:41;15.00;68.90
41318;DHT22;27067;51.554;7.026;2023-03-01T13:11:19;14.90;68.90
41318;DHT22;27067;51.554;7.026;2023-03-01T13:13:46;15.00;69.10
41318;DHT22;27067;51.554;7.026;2023-03-01T13:19:24;15.00;69.20
41318;DHT22;27067;51.554;7.026;2023-03-01T13:21:52;15.10;69.20
41318;DHT22;27067;51.554;7.026;2023-03-01T13:27:11;15.10;69.10
41318;DHT22;27067;51.554;7.026;2023-03-01T13:29:56;15.10;68.90
41318;DHT22;27067;51.554;7.026;2023-03-01T13:32:26;15.20;69.00
41318;DHT22;27067;51.554;7.026;2023-03-01T13:34:58;15.20;68.90
41318;DHT22;27067;51.554;7.026;2023-03-01T13:37:32;15.20;68.90
41318;DHT22;27067;51.554;7.026;2023-03-01T13:40:01;15.20;68.90
41318;DHT22;27067;51.554;7.026;2023-03-01T13:42:51;15.20;68.80
41318;DHT22;27067;51.554;7.026;2023-03-01T13:45:21;15.20;68.70
41318;DHT22;27067;51.554;7.026;2023-03-01T13:47:52;15.10;68.60
41318;DHT22;27067;51.554;7.026;2023-03-01T13:50:23;15.10;68.60
41318;DHT22;27067;51.554;7.026;2023-03-01T13:52:57;15.10;68.60
41318;DHT22;27067;51.554;7.026;2023-03-01T13:55:30;15.10;68.60
41318;DHT22;27067;51.554;7.026;2023-03-01T13:58:00;15.10;68.60
41318;DHT22;27067;51.554;7.026;2023-03-01T14:00:36;15.00;68.40
41318;DHT22;27067;51.554;7.026;2023-03-01T14:03:17;15.00;68.60
41318;DHT22;27067;51.554;7.026;2023-03-01T14:06:05;15.10;71.60
41318;DHT22;27067;51.554;7.026;2023-03-01T14:08:33;15.10;71.50
41318;DHT22;27067;51.554;7.026;2023-03-01T14:14:05;15.20;71.00
41318;DHT22;27067;51.554;7.026;2023-03-01T14:16:40;15.20;70.60
41318;DHT22;27067;51.554;7.026;2023-03-01T14:19:18;15.30;70.50
41318;DHT22;27067;51.554;7.026;2023-03-01T14:22:20;15.30;70.40
41318;DHT22;27067;51.554;7.026;2023-03-01T14:24:55;15.30;70.10
41318;DHT22;27067;51.554;7.026;2023-03-01T14:27:21;15.30;69.90
41318;DHT22;27067;51.554;7.026;2023-03-01T14:29:59;15.40;69.80
41318;DHT22;27067;51.554;7.026;2023-03-01T14:32:27;15.40;69.80
41318;DHT22;27067;51.554;7.026;2023-03-01T14:34:54;15.40;69.60
41318;DHT22;27067;51.554;7.026;2023-03-01T14:37:30;15.40;70.10
41318;DHT22;27067;51.554;7.026;2023-03-01T14:39:58;15.40;69.50
41318;DHT22;27067;51.554;7.026;2023-03-01T14:42:28;15.40;69.40
41318;DHT22;27067;51.554;7.026;2023-03-01T14:44:55;15.40;69.30
41318;DHT22;27067;51.554;7.026;2023-03-01T14:47:33;15.40;69.10
41318;DHT22;27067;51.554;7.026;2023-03-01T14:50:35;15.40;69.00
41318;DHT22;27067;51.554;7.026;2023-03-01T14:53:06;15.40;69.00
41318;DHT22;27067;51.554;7.026;2023-03-01T14:55:36;15.40;68.90
41318;DHT22;27067;51.554;7.026;2023-03-01T14:58:05;15.40;68.90
41318;DHT22;27067;51.554;7.026;2023-03-01T15:00:33;15.40;69.00
41318;DHT22;27067;51.554;7.026;2023-03-01T15:03:35;15.40;69.10
41318;DHT22;27067;51.554;7.026;2023-03-01T15:06:06;15.40;69.30
41318;DHT22;27067;51.554;7.026;2023-03-01T15:08:33;15.30;69.40
41318;DHT22;27067;51.554;7.026;2023-03-01T15:11:20;15.40;69.30
41318;DHT22;27067;51.554;7.026;2023-03-01T15:13:50;15.40;69.10
41318;DHT22;27067;51.554;7.026;2023-03-01T15:16:23;15.40;68.80
41318;DHT22;27067;51.554;7.026;2023-03-01T15:18:52;15.40;68.80
41318;DHT22;27067;51.554;7.026;2023-03-01T15:21:32;15.50;69.00
41318;DHT22;27067;51.554;7.026;2023-03-01T15:24:17;15.50;69.00
41318;DHT22;27067;51.554;7.026;2023-03-01T15:26:53;15.50;69.20
41318;DHT22;27067;51.554;7.026;2023-03-01T15:29:25;15.50;69.50
41318;DHT22;27067;51.554;7.026;2023-03-01T15:34:42;15.50;70.20
41318;DHT22;27067;51.554;7.026;2023-03-01T15:37:43;15.50;70.50
41318;DHT22;27067;51.554;7.026;2023-03-01T15:40:22;15.50;70.60
41318;DHT22;27067;51.554;7.026;2023-03-01T15:42:57;15.50;70.80
41318;DHT22;27067;51.554;7.026;2023-03-01T15:45:25;15.50;70.80
41318;DHT22;27067;51.554;7.026;2023-03-01T15:47:57;15.50;70.90
41318;DHT22;27067;51.554;7.026;2023-03-01T15:50:29;15.50;70.90
41318;DHT22;27067;51.554;7.026;2023-03-01T15:52:57;15.50;71.00
41318;DHT22;27067;51.554;7.026;2023-03-01T15:55:24;15.50;71.00
41318;DHT22;27067;51.554;7.026;2023-03-01T15:58:00;15.40;71.00
41318;DHT22;27067;51.554;7.026;2023-03-01T16:00:26;15.40;71.00
41318;DHT22;27067;51.554;7.026;2023-03-01T16:02:52;15.40;71.20
41318;DHT22;27067;51.554;7.026;2023-03-01T16:05:25;15.50;71.00
41318;DHT22;27067;51.554;7.026;2023-03-01T16:07:51;15.40;71.00
41318;DHT22;27067;51.554;7.026;2023-03-01T16:10:18;15.40;71.10
41318;DHT22;27067;51.554;7.026;2023-03-01T16:12:44;15.40;71.10
41318;DHT22;27067;51.554;7.026;2023-03-01T16:15:21;15.40;71.10
41318;DHT22;27067;51.554;7.026;2023-03-01T16:17:47;15.40;71.10
41318;DHT22;27067;51.554;7.026;2023-03-01T16:20:13;15.50;71.10
41318;DHT22;27067;51.554;7.026;2023-03-01T16:22:44;15.60;71.00
41318;DHT22;27067;51.554;7.026;2023-03-01T16:25:16;15.60;70.90
41318;DHT22;27067;51.554;7.026;2023-03-01T16:27:43;15.70;70.80
41318;DHT22;27067;51.554;7.026;2023-03-01T16:30:09;15.70;70.60
41318;DHT22;27067;51.554;7.026;2023-03-01T16:32:40;15.80;70.40
41318;DHT22;27067;51.554;7.026;2023-03-01T16:35:07;15.90;70.20
41318;DHT22;27067;51.554;7.026;2023-03-01T16:37:33;15.90;69.90
41318;DHT22;27067;51.554;7.026;2023-03-01T16:39:59;15.90;69.60
41318;DHT22;27067;51.554;7.026;2023-03-01T16:42:25;15.90;69.40
41318;DHT22;27067;51.554;7.026;2023-03-01T16:44:57;16.00;69.40
41318;DHT22;27067;51.554;7.026;2023-03-01T16:47:22;16.00;69.20
41318;DHT22;27067;51.554;7.026;2023-03-01T16:49:52;16.00;69.10
41318;DHT22;27067;51.554;7.026;2023-03-01T16:52:18;15.90;69.10
41318;DHT22;27067;51.554;7.026;2023-03-01T16:54:43;15.90;69.10
41318;DHT22;27067;51.554;7.026;2023-03-01T16:57:09;15.90;69.00
41318;DHT22;27067;51.554;7.026;2023-03-01T16:59:34;15.90;68.90
41318;DHT22;27067;51.554;7.026;2023-03-01T17:02:00;15.90;68.80
41318;DHT22;27067;51.554;7.026;2023-03-01T17:04:26;15.80;68.70
41318;DHT22;27067;51.554;7.026;2023-03-01T17:06:51;15.80;68.70
41318;DHT22;27067;51.554;7.026;2023-03-01T17:09:17;15.80;68.80
41318;DHT22;27067;51.554;7.026;2023-03-01T17:11:43;15.80;68.80
41318;DHT22;27067;51.554;7.026;2023-03-01T17:14:08;15.80;68.90
41318;DHT22;27067;51.554;7.026;2023-03-01T17:16:34;15.80;68.70
41318;DHT22;27067;51.554;7.026;2023-03-01T17:19:00;15.80;68.60
41318;DHT22;27067;51.554;7.026;2023-03-01T17:21:26;15.80;68.50
41318;DHT22;27067;51.554;7.026;2023-03-01T17:23:55;15.80;68.30
41318;DHT22;27067;51.554;7.026;2023-03-01T17:26:21;15.80;68.20